Meteo Giornale » Osservazioni meteo Stati Uniti (USA) » Denver

ore: 13:53 - Osservazioni Meteo Denver
Lat. 39° 49' N Lon. 104° 39' W Alt. 1655 metri s.l.m.

nuvoloso

28 °C

Nuvoloso

Temp. 24 Ore

16 °C

29 °C

Nord

9.3 Km/h

Dew point 5 °C

Umidità 23 %

Visibilità  10 Km

Il sole sorge alle ore 06:26

Il sole tramonta alle ore 19:30

Data e Ora Cielo e Fenomeni T °C DP °C Um. % Pres. hPa Vis. km Vento km/h
Oggi h: 13:53 nuvoloso Nuvoloso 28 5 23 1019 10 N 9.3
Oggi h: 12:53 nuvoloso Nuvoloso 27 7 28 1019 10 N 7.4
Oggi h: 11:53 nuvoloso Nuvoloso 25 8 33 1020 10 N 7.4
Oggi h: 10:53 nuvoloso Nuvoloso 22 9 43 1021 10 SO 9.3
Oggi h: 09:53 molto_nuvoloso Molto Nuvoloso 21 12 56 1021 10 SO 13
Oggi h: 08:53 molto_nuvoloso Molto Nuvoloso 19 12 63 1021 10 O/SO 14.8
Oggi h: 07:53 molto_nuvoloso Molto Nuvoloso 18 12 67 1020 10 O/SO 11.1
Oggi h: 06:53 molto_nuvoloso Molto Nuvoloso 16 12 77 1019 10 SO 11.1
Oggi h: 05:53 molto_nuvoloso Molto Nuvoloso 17 12 72 1019 10 O/SO 11.1
Oggi h: 04:53 molto_nuvoloso Molto Nuvoloso 17 13 77 1019 10 O/SO 9.3
Oggi h: 03:53 molto_nuvoloso Molto Nuvoloso 17 12 72 1020 10 SO 11.1
Oggi h: 02:53 molto_nuvoloso Molto Nuvoloso 18 13 72 1020 10 S/SO 13
Oggi h: 01:53 molto_nuvoloso Molto Nuvoloso 17 13 77 1021 10 SO 7.4
Oggi h: 00:53 molto_nuvoloso Molto Nuvoloso 17 14 82 1022 10 S/SO 7.4
Ieri h: 23:53 molto_nuvoloso Molto Nuvoloso 17 13 77 1021 10 S 9.3
Ieri h: 22:53 molto_nuvoloso Molto Nuvoloso 17 13 77 1021 10 O/NO 11.1
Ieri h: 21:53 molto_nuvoloso Molto Nuvoloso 18 14 77 1022 10 O/NO 20.3
Ieri h: 21:05 coperto_pioggia Pioggia 21 12 56 1022 10 O/SO 25.9
Ieri h: 20:53 coperto_pioggia Pioggia 22 10 46 1022 10 O/SO 20.3
Ieri h: 20:00 molto_nuvoloso Molto Nuvoloso 22 11 49 1020 10 O/NO 24
Ieri h: 19:53 molto_nuvoloso Molto Nuvoloso 22 10 46 1020 10 NO 27.8
Ieri h: 18:53 molto_nuvoloso Molto Nuvoloso 27 6 26 1019 10 E 20.3
Ieri h: 17:53 molto_nuvoloso Molto Nuvoloso 29 6 23 1019 10 E/SE 27.8
Ieri h: 16:53 molto_nuvoloso Molto Nuvoloso 29 6 23 1019 10 E/SE 24
Ieri h: 15:53 molto_nuvoloso Molto Nuvoloso 28 5 23 1020 10 E 7.4
Ieri h: 14:53 molto_nuvoloso Molto Nuvoloso 29 7 25 1020 10 E 22.2